NEODyS-2

Near Earth Objects - Dynamic Site
NEODyS ∴ Observatories ∴ Site 691 ∴ Obs & residuals
Contact »
691  ▹ 
OBSERVATIONS AND RESIDUALS

691-Steward Observatory, Kitt Peak-Spacewatch

Detections | Residuals | Detections & Residuals

[1-200] [201-400] [401-600] [601-800] [801-1000] [1001-1200] [1201-1400] [1401-1600] [1601-1800] [1801-2000] [2001-2200] [2201-2400] [2401-2600] [2601-2800] [2801-3000] [3001-3200] [3201-3400] [3401-3600] [3601-3800] [3801-4000] [4001-4200] [4201-4400] [4401-4600] [4601-4800] [4801-5000] [5001-5200] [5201-5400] [5401-5600] [5601-5800] [5801-6000] [6001-6200] [6201-6400] [6401-6600] [6601-6800] [6801-7000] [7001-7200] [7201-7400] [7401-7600] [7601-7800] [7801-8000] [8001-8200] [8201-8400] [8401-8600] [8601-8800] [8801-9000] [9001-9200] [9201-9400] [9401-9600] [9601-9800] [9801-10000] [10001-10200] [10201-10400] [10401-10600] [10601-10800] [10801-11000] [11001-11200] [11201-11400] [11401-11600] [11601-11800] [11801-12000] [12001-12200] [12201-12400] [12401-12600] [12601-12800] [12801-13000] [13001-13200] [13201-13400] [13401-13600] [13601-13800] [13801-14000] [14001-14200] [14201-14400] [14401-14600] [14601-14800] [14801-15000] [15001-15200] [15201-15400] [15401-15600] [15601-15800] [15801-16000] [16001-16200] [16201-16400] [16401-16600] [16601-16800] [16801-17000] [17001-17200] [17201-17400] [17401-17600] [17601-17800] [17801-18000] [18001-18200] [18201-18400] [18401-18600] [18601-18800] [18801-19000] [19001-19200] [19201-19400] [19401-19600] [19601-19800] [19801-20000] [20001-20200] [20201-20400] [20401-20600] [20601-20800] [20801-21000] [21001-21200] [21201-21400] [21401-21600] [21601-21800] [21801-22000] [22001-22200] [22201-22400] [22401-22600] [22601-22800] [22801-23000] [23001-23200] [23201-23400] [23401-23600] [23601-23800] [23801-24000] [24001-24200] [24201-24400] [24401-24600] [24601-24800] [24801-25000] [25001-25200] [25201-25400] [25401-25600] [25601-25800] [25801-26000] [26001-26200] [26201-26400] [26401-26600] [26601-26800] [26801-27000] [27001-27200] [27201-27400] [27401-27600] [27601-27800] [27801-28000] [28001-28200] [28201-28400] [28401-28600] [28601-28800] [28801-29000] [29001-29200] [29201-29400] [29401-29600] [29601-29800] [29801-30000] [30001-30200] [30201-30400] [30401-30600] [30601-30800] [30801-31000] [31001-31200] [31201-31400] [31401-31600] [31601-31800] [31801-32000] [32001-32200] [32201-32400] [32401-32600] [32601-32800] [32801-33000] [33001-33200] [33201-33400] [33401-33600] [33601-33800] [33801-34000] [34001-34200] [34201-34400] [34401-34600] [34601-34800] [34801-35000] [35001-35200] [35201-35400] [35401-35600] [35601-35800] [35801-36000] [36001-36200] [36201-36400] [36401-36600] [36601-36800] [36801-37000] [37001-37200] [37201-37400] [37401-37600] [37601-37800] [37801-38000] [38001-38200] [38201-38400] [38401-38600] [38601-38800] [38801-39000] [39001-39200] [39201-39400] [39401-39600] [39601-39800] [39801-40000] [40001-40200] [40201-40400] [40401-40600] [40601-40800] [40801-41000] [41001-41200] [41201-41400] [41401-41600] [41601-41800] [41801-42000] [42001-42200] [42201-42400] [42401-42600] [42601-42800] [42801-43000] [43001-43200] [43201-43400] [43401-43600] [43601-43800] [43801-44000] [44001-44200] [44201-44400] [44401-44600] [44601-44800] [44801-45000] [45001-45200] [45201-45400] [45401-45600] [45601-45800] [45801-46000] [46001-46200] [46201-46400] [46401-46600] [46601-46800] [46801-47000] [47001-47200] [47201-47400] [47401-47600] [47601-47800] [47801-48000] [48001-48200] [48201-48400] [48401-48600] [48601-48800] [48801-49000] [49001-49200] [49201-49400] [49401-49600] [49601-49800] [49801-50000] [50001-50200] [50201-50388]

Designation T Tech N Date Right Ascension Declination Apparent Magnitude Star Catalog Site code χ Used A Used M
yr-mo-day precision hr:min:sec precision rms F bias residual deg min sec precision rms F bias residual mag/col rms residual
2009BD2 O C 2009-03-01.19212 1.000E-05 10:25:54.670 1.500E-01 0.500 F 0.182 -0.202 +05° 05' 25.90" 1.000E-01 0.500 F 0.065 0.162 o 691 0.53 Yes No
Florence O C 2009-03-01.19458 1.000E-05 10:38:26.920 1.500E-01 0.500 F 0.173 -0.175 +05° 57' 45.10" 1.000E-01 0.500 F 0.154 -0.082 o 691 0.39 Yes No
2002PG80 O C 2009-03-01.19458 1.000E-05 10:35:40.110 1.500E-01 0.500 F 0.161 0.570 +04° 55' 32.10" 1.000E-01 0.500 F 0.095 0.107 o 691 1.18 Yes No
Akka O C H 2009-03-01.19975 1.000E-05 10:21:01.460 1.500E-01 0.500 F 0.149 -0.153 +06° 34' 02.70" 1.000E-01 0.500 F 0.131 -0.046 20.9 V 0.70 0.43 o 691 0.32 Yes Yes
2005NJ1 O C 2009-03-01.20484 1.000E-05 10:12:35.880 1.500E-01 0.500 F 0.144 -0.522 +05° 36' 25.50" 1.000E-01 0.500 F 0.092 -0.097 o 691 1.08 Yes No
2009BD2 O C 2009-03-01.20976 1.000E-05 10:25:53.720 1.500E-01 0.500 F 0.182 -0.215 +05° 05' 45.60" 1.000E-01 0.500 F 0.065 0.082 o 691 0.47 Yes No
Florence O C 2009-03-01.21223 1.000E-05 10:38:25.150 1.500E-01 0.500 F 0.173 -0.299 +05° 57' 46.20" 1.000E-01 0.500 F 0.154 -0.156 o 691 0.68 Yes No
2002PG80 O C 2009-03-01.21223 1.000E-05 10:35:38.660 1.500E-01 0.500 F 0.161 -0.782 +04° 55' 43.30" 1.000E-01 0.500 F 0.095 0.335 o 691 1.74 Yes No
2006KT1 O C H 2009-03-01.23394 1.000E-05 11:55:49.360 1.500E-01 0.500 F 0.124 0.497 +08° 16' 17.90" 1.000E-01 0.500 F -0.003 0.199 o 691 1.07 Yes No
2006KT1 O C H 2009-03-01.25158 1.000E-05 11:55:48.370 1.500E-01 0.500 F 0.124 -0.866 +08° 16' 26.70" 1.000E-01 0.500 F -0.003 0.349 21.3 V 0.70 -0.06 o 691 1.87 Yes Yes
2006KT1 O C H 2009-03-01.26939 1.000E-05 11:55:47.480 1.500E-01 0.500 F 0.124 -0.583 +08° 16' 35.10" 1.000E-01 0.500 F -0.003 0.020 21.2 V 0.70 -0.16 o 691 1.17 Yes Yes
2005EG94 O C H 2009-03-01.27623 1.000E-05 11:31:49.060 1.500E-01 0.500 F 0.167 -0.060 -02° 53' 33.20" 1.000E-01 0.500 F 0.149 0.116 o 691 0.27 Yes No
2005EG94 O C H 2009-03-01.29387 1.000E-05 11:31:47.290 1.500E-01 0.500 F 0.167 -0.926 -02° 53' 27.50" 1.000E-01 0.500 F 0.149 0.700 20.9 V 0.70 -0.58 o 691 2.34 Yes Yes
2005EG94 O C H 2009-03-01.30897 1.000E-05 11:31:45.920 1.500E-01 0.500 F 0.167 0.529 -02° 53' 24.10" 1.000E-01 0.500 F 0.149 -0.284 21.4 V 0.70 -0.08 o 691 1.21 Yes Yes
2002EZ11 O C 2009-03-01.34316 1.000E-05 12:27:54.720 1.500E-01 0.500 F 0.204 -0.451 +02° 15' 45.70" 1.000E-01 0.500 F 0.195 0.109 o 691 0.93 Yes No
2002EZ11 O C 2009-03-01.36079 1.000E-05 12:27:51.050 1.500E-01 0.500 F 0.204 -1.751 +02° 16' 09.10" 1.000E-01 0.500 F 0.195 0.582 o 691 3.69 No No
2002EZ11 O C 2009-03-01.37844 1.000E-05 12:27:47.540 1.500E-01 0.500 F 0.204 -0.563 +02° 16' 31.40" 1.000E-01 0.500 F 0.195 -0.066 o 691 1.13 Yes No
2003MX2 O C 2009-03-01.38769 1.000E-05 12:51:54.450 1.500E-01 0.500 F 0.124 -0.525 +03° 21' 55.80" 1.000E-01 0.500 F 0.221 -0.184 o 691 1.11 Yes No
2003MX2 O C 2009-03-01.40532 1.000E-05 12:51:53.710 1.500E-01 0.500 F 0.124 -0.617 +03° 22' 01.90" 1.000E-01 0.500 F 0.221 0.323 o 691 1.40 Yes No
2003MX2 O C 2009-03-01.42058 1.000E-05 12:51:53.170 1.500E-01 0.500 F 0.124 0.812 +03° 22' 06.50" 1.000E-01 0.500 F 0.221 0.082 o 691 1.63 Yes No
Konnohmaru O C H 2009-03-01.44593 1.000E-05 13:11:05.210 1.500E-01 0.500 F 0.238 -0.128 -01° 43' 23.60" 1.000E-01 0.500 F 0.080 -0.803 21.5 V 0.70 -0.12 o 691 1.63 Yes Yes
Konnohmaru O C H 2009-03-01.46109 1.000E-05 13:11:04.590 1.500E-01 0.500 F 0.238 0.109 -01° 43' 18.60" 1.000E-01 0.500 F 0.080 -0.249 o 691 0.54 Yes No
Konnohmaru O C H 2009-03-01.47626 1.000E-05 13:11:03.950 1.500E-01 0.500 F 0.238 0.048 -01° 43' 14.70" 1.000E-01 0.500 F 0.080 -0.799 o 691 1.60 Yes No
2001QQ142 O C H 2009-03-01.48838 1.000E-05 15:54:53.700 1.500E-01 0.500 F 0.193 -2.775 -08° 27' 37.80" 1.000E-01 0.500 F 0.113 -2.649 o 691 7.67 No No
2001QQ142 O C H 2009-03-01.50097 1.000E-05 15:54:54.400 1.500E-01 0.500 F 0.193 -1.143 -08° 27' 34.10" 1.000E-01 0.500 F 0.113 0.589 21.4 V 0.70 0.03 o 691 2.58 Yes Yes
2001QQ142 O C H 2009-03-01.51356 1.000E-05 15:54:55.050 1.500E-01 0.500 F 0.193 -0.241 -08° 27' 35.00" 1.000E-01 0.500 F 0.113 -0.780 21.2 V 0.70 -0.17 o 691 1.63 Yes Yes
2004EU9 O C 2009-03-02.22220 1.000E-05 11:21:19.900 1.500E-01 0.500 F 0.181 -0.082 +09° 07' 15.70" 1.000E-01 0.500 F 0.063 -0.121 17.2 V 0.70 0.26 o 691 0.30 Yes Yes
2004EU9 O C 2009-03-02.23986 1.000E-05 11:21:14.840 1.500E-01 0.500 F 0.181 -0.174 +09° 09' 07.70" 1.000E-01 0.500 F 0.063 0.102 17.2 V 0.70 0.26 o 691 0.41 Yes Yes
2004EU9 O C 2009-03-02.25836 1.000E-05 11:21:09.530 1.500E-01 0.500 F 0.181 -0.195 +09° 11' 04.60" 1.000E-01 0.500 F 0.063 0.010 17.2 V 0.70 0.26 o 691 0.40 Yes Yes
1996EN O C 2009-03-02.27812 1.000E-05 11:50:53.610 1.500E-01 0.500 F 0.250 -0.700 +06° 48' 41.70" 1.000E-01 0.500 F 0.170 0.140 17.0 V 0.70 0.09 o 691 1.43 Yes Yes
1996EN O C t 2009-03-02.28568 1.000E-05 11:50:53.120 1.500E-01 0.500 F 0.250 -0.145 +06° 49' 06.40" 1.000E-01 0.500 F 0.170 -0.640 16.8 V 0.70 -0.11 o 691 1.32 Yes Yes
1988XB O C 2009-03-02.28814 1.000E-05 11:58:08.340 1.500E-01 0.500 F 0.138 -0.365 +06° 19' 13.50" 1.000E-01 0.500 F 0.171 0.224 20.5 V 0.70 -0.08 o 691 0.85 Yes Yes
1996EN O C 2009-03-02.29578 1.000E-05 11:50:52.380 1.500E-01 0.500 F 0.250 -0.652 +06° 49' 41.10" 1.000E-01 0.500 F 0.170 0.016 17.0 V 0.70 0.09 o 691 1.31 Yes Yes
1988XB O C 2009-03-02.30580 1.000E-05 11:58:06.760 1.500E-01 0.500 F 0.138 -0.367 +06° 19' 24.40" 1.000E-01 0.500 F 0.171 0.109 20.4 V 0.70 -0.18 o 691 0.76 Yes Yes
1996EN O C 2009-03-02.31343 1.000E-05 11:50:51.140 1.500E-01 0.500 F 0.250 -0.689 +06° 50' 40.70" 1.000E-01 0.500 F 0.170 0.114 17.1 V 0.70 0.19 o 691 1.40 Yes Yes
1988XB O C 2009-03-02.32346 1.000E-05 11:58:05.220 1.500E-01 0.500 F 0.138 0.261 +06° 19' 34.30" 1.000E-01 0.500 F 0.171 -0.999 20.4 V 0.70 -0.18 o 691 2.07 Yes Yes
2009DO111 O C 2009-03-02.34047 1.000E-05 12:23:12.050 1.500E-01 0.500 F 0.160 -0.407 +08° 29' 16.10" 1.000E-01 0.500 F 0.115 -0.038 18.8 V 0.70 -0.13 o 691 0.82 Yes Yes
2002AV4 O C H 2009-03-02.34557 1.000E-05 12:15:22.620 1.500E-01 0.500 F 0.182 -0.230 +07° 02' 41.00" 1.000E-01 0.500 F 0.184 -0.065 20.1 V 0.70 0.37 o 691 0.48 Yes Yes
2005EF O C 2009-03-02.35050 1.000E-05 12:30:42.450 1.500E-01 0.500 F 0.222 -0.373 +07° 10' 10.80" 1.000E-01 0.500 F 0.120 -0.046 18.9 V 0.70 0.21 o 691 0.76 Yes Yes
2009DO111 O C 2009-03-02.35813 1.000E-05 12:23:11.720 1.500E-01 0.500 F 0.160 -0.267 +08° 29' 23.80" 1.000E-01 0.500 F 0.115 -0.166 20.1 V 0.70 1.17 o 691 0.63 Yes Yes
2002AV4 O C H 2009-03-02.36323 1.000E-05 12:15:21.230 1.500E-01 0.500 F 0.182 -0.242 +07° 02' 48.70" 1.000E-01 0.500 F 0.184 -0.009 20.0 V 0.70 0.27 o 691 0.48 Yes Yes
2005EF O C 2009-03-02.36816 1.000E-05 12:30:39.120 1.500E-01 0.500 F 0.222 -0.547 +07° 09' 12.40" 1.000E-01 0.500 F 0.120 -0.143 18.9 V 0.70 0.21 o 691 1.14 Yes Yes
2009DO111 O C 2009-03-02.37579 1.000E-05 12:23:11.370 1.500E-01 0.500 F 0.160 -0.254 +08° 29' 31.70" 1.000E-01 0.500 F 0.115 0.031 18.8 V 0.70 -0.12 o 691 0.52 Yes Yes
2002AV4 O C H 2009-03-02.38089 1.000E-05 12:15:19.840 1.500E-01 0.500 F 0.182 -0.242 +07° 02' 55.80" 1.000E-01 0.500 F 0.184 -0.548 o 691 1.20 Yes No
2005EF O C 2009-03-02.38581 1.000E-05 12:30:35.880 1.500E-01 0.500 F 0.222 0.694 +07° 08' 13.70" 1.000E-01 0.500 F 0.120 -0.468 18.5 V 0.70 -0.19 o 691 1.70 Yes Yes
1998YM4 O C H 2009-03-02.40823 1.000E-05 12:23:50.650 1.500E-01 0.500 F 0.049 0.073 -04° 10' 24.90" 1.000E-01 0.500 F 0.127 -0.776 o 691 1.58 Yes No
2006SD6 O C 2009-03-02.40823 1.000E-05 12:25:09.790 1.500E-01 0.500 F 0.068 0.076 -03° 27' 55.80" 1.000E-01 0.500 F 0.167 0.114 19.8 V 0.70 -0.32 o 691 0.28 Yes Yes
1996BZ3 O C 2009-03-02.40823 1.000E-05 12:26:07.710 1.500E-01 0.500 F 0.068 -0.031 -03° 36' 48.70" 1.000E-01 0.500 F 0.167 0.047 19.8 V 0.70 0.37 o 691 0.12 Yes Yes
1998YM4 O C H 2009-03-02.42588 1.000E-05 12:23:48.940 1.500E-01 0.500 F 0.049 -1.012 -04° 10' 16.60" 1.000E-01 0.500 F 0.127 -0.032 o 691 2.06 Yes No
2006SD6 O C 2009-03-02.42588 1.000E-05 12:25:08.540 1.500E-01 0.500 F 0.068 -0.069 -03° 26' 35.30" 1.000E-01 0.500 F 0.167 0.294 19.9 V 0.70 -0.22 o 691 0.61 Yes Yes
1996BZ3 O C 2009-03-02.42588 1.000E-05 12:26:06.660 1.500E-01 0.500 F 0.068 -0.109 -03° 36' 38.00" 1.000E-01 0.500 F 0.167 0.255 19.7 V 0.70 0.27 o 691 0.56 Yes Yes
1998YM4 O C H 2009-03-02.44353 1.000E-05 12:23:47.430 1.500E-01 0.500 F 0.049 0.887 -04° 10' 09.60" 1.000E-01 0.500 F 0.127 -0.600 21.8 V 0.70 -0.04 o 691 2.17 Yes Yes
2006SD6 O C 2009-03-02.44353 1.000E-05 12:25:07.300 1.500E-01 0.500 F 0.068 -0.109 -03° 25' 15.10" 1.000E-01 0.500 F 0.167 0.158 19.9 V 0.70 -0.22 o 691 0.39 Yes Yes
1996BZ3 O C 2009-03-02.44353 1.000E-05 12:26:05.630 1.500E-01 0.500 F 0.068 0.087 -03° 36' 27.80" 1.000E-01 0.500 F 0.167 -0.048 19.8 V 0.70 0.37 o 691 0.20 Yes Yes
1999CU3 O C 2009-03-03.15353 1.000E-05 10:22:45.170 1.500E-01 0.500 F 0.074 -0.438 +10° 09' 08.60" 1.000E-01 0.500 F 0.172 -0.208 17.6 V 0.70 0.18 o 691 0.97 Yes Yes
2009DA1 O C H 2009-03-03.15846 1.000E-05 10:31:39.030 1.500E-01 0.500 F 0.057 -0.314 +11° 10' 37.30" 1.000E-01 0.500 F 0.125 -0.107 21.1 V 0.70 0.07 o 691 0.72 Yes Yes
2009CW1 O C 2009-03-03.16092 1.000E-05 10:41:58.820 1.500E-01 0.500 F 0.157 -0.190 +11° 00' 12.70" 1.000E-01 0.500 F 0.240 -0.006 19.6 V 0.70 0.07 o 691 0.39 Yes Yes
1999CU3 O C 2009-03-03.17116 1.000E-05 10:22:42.420 1.500E-01 0.500 F 0.074 -0.304 +10° 09' 11.40" 1.000E-01 0.500 F 0.172 -0.050 17.6 V 0.70 0.17 o 691 0.62 Yes Yes
2009DA1 O C H 2009-03-03.17609 1.000E-05 10:31:38.140 1.500E-01 0.500 F 0.057 -0.595 +11° 10' 57.00" 1.000E-01 0.500 F 0.125 0.121 21.0 V 0.70 -0.03 o 691 1.38 Yes Yes
2009CW1 O C 2009-03-03.17855 1.000E-05 10:41:57.550 1.500E-01 0.500 F 0.157 -0.220 +10° 59' 07.50" 1.000E-01 0.500 F 0.240 0.142 19.4 V 0.70 -0.13 o 691 0.55 Yes Yes
1999CU3 O C 2009-03-03.18879 1.000E-05 10:22:39.650 1.500E-01 0.500 F 0.074 -0.359 +10° 09' 14.00" 1.000E-01 0.500 F 0.172 -0.072 17.9 V 0.70 0.47 o 691 0.73 Yes Yes
2009DA1 O C H 2009-03-03.19373 1.000E-05 10:31:37.320 1.500E-01 0.500 F 0.057 0.339 +11° 11' 16.10" 1.000E-01 0.500 F 0.125 -0.197 21.2 V 0.70 0.17 o 691 0.92 Yes Yes
2009CW1 O C 2009-03-03.19619 1.000E-05 10:41:56.260 1.500E-01 0.500 F 0.157 -0.278 +10° 58' 01.70" 1.000E-01 0.500 F 0.240 -0.252 19.6 V 0.70 0.07 o 691 0.77 Yes Yes
2000ST20 O C 2009-03-03.22220 1.000E-05 11:16:44.680 1.500E-01 0.500 F 0.078 -0.283 +03° 08' 56.80" 1.000E-01 0.500 F 0.086 -0.030 20.8 V 0.70 0.07 o 691 0.57 Yes Yes
2000ST20 O C 2009-03-03.23983 1.000E-05 11:16:42.730 1.500E-01 0.500 F 0.078 -0.688 +03° 08' 54.00" 1.000E-01 0.500 F 0.086 0.126 20.8 V 0.70 0.07 o 691 1.42 Yes Yes
2000ST20 O C 2009-03-03.25748 1.000E-05 11:16:40.810 1.500E-01 0.500 F 0.078 -0.556 +03° 08' 51.00" 1.000E-01 0.500 F 0.086 0.089 21.2 V 0.70 0.47 o 691 1.14 Yes Yes
2005GW119 O C 2009-03-03.26686 1.000E-05 11:37:38.620 1.500E-01 0.500 F 0.233 -0.197 +01° 57' 01.30" 1.000E-01 0.500 F 0.201 0.114 19.6 V 0.70 -0.03 o 691 0.46 Yes Yes
1992NA O C H 2009-03-03.26686 1.000E-05 11:38:28.610 1.500E-01 0.500 F 0.233 0.514 +01° 51' 54.20" 1.000E-01 0.500 F 0.201 0.054 21.6 V 0.70 -0.25 o 691 1.04 Yes Yes
2000GU127 O C 2009-03-03.26686 1.000E-05 11:34:46.450 1.500E-01 0.500 F 0.193 0.040 +01° 43' 56.90" 1.000E-01 0.500 F 0.096 0.281 21.4 V 0.70 0.04 o 691 0.57 Yes Yes
2000GO82 O C H 2009-03-03.26933 1.000E-05 11:46:20.410 1.500E-01 0.500 F 0.323 1.150 +00° 50' 16.60" 1.000E-01 0.500 F 0.249 -2.176 o 691 4.91 No No
2009EA O C t 2009-03-03.27179 1.000E-05 11:52:29.090 1.500E-01 0.500 F 0.105 2.396 +01° 41' 32.80" 1.000E-01 0.500 F 0.137 -0.324 18.7 V 0.70 -0.09 o 691 3.69 No Yes
2009EJ1 O C 2009-03-03.27933 1.000E-05 11:53:11.150 1.500E-01 0.500 F 0.162 -0.128 +00° 04' 10.70" 1.000E-01 0.500 F 0.122 0.074 20.6 V 0.70 -0.22 o 691 0.40 Yes Yes
Verenia O C 2009-03-03.27933 1.000E-05 11:52:28.440 1.500E-01 0.500 F 0.171 -0.187 +00° 35' 55.80" 1.000E-01 0.500 F 0.152 -0.198 20.8 V 0.70 -0.24 o 691 0.55 Yes Yes
2000GU127 O C 2009-03-03.28450 1.000E-05 11:34:44.960 1.500E-01 0.500 F 0.193 -0.196 +01° 44' 08.90" 1.000E-01 0.500 F 0.096 0.102 21.1 V 0.70 -0.26 o 691 0.44 Yes Yes
2005GW119 O C 2009-03-03.28450 1.000E-05 11:37:37.150 1.500E-01 0.500 F 0.233 -0.065 +01° 57' 13.70" 1.000E-01 0.500 F 0.201 -0.010 19.6 V 0.70 -0.03 o 691 0.13 Yes Yes
2000GO82 O C H 2009-03-03.28696 1.000E-05 11:46:19.280 1.500E-01 0.500 F 0.323 0.430 +00° 50' 27.40" 1.000E-01 0.500 F 0.249 -1.215 o 691 2.58 Yes No
Verenia O C 2009-03-03.29698 1.000E-05 11:52:27.390 1.500E-01 0.500 F 0.171 -0.577 +00° 36' 04.80" 1.000E-01 0.500 F 0.152 0.045 20.9 V 0.70 -0.14 o 691 1.16 Yes Yes
2009EJ1 O C 2009-03-03.29698 1.000E-05 11:53:07.880 1.500E-01 0.500 F 0.162 0.088 +00° 04' 27.40" 1.000E-01 0.500 F 0.122 -0.315 20.5 V 0.70 -0.33 o 691 0.77 Yes Yes
2005GW119 O C 2009-03-03.30214 1.000E-05 11:37:35.660 1.500E-01 0.500 F 0.233 -0.182 +01° 57' 26.20" 1.000E-01 0.500 F 0.201 -0.032 19.6 V 0.70 -0.03 o 691 0.37 Yes Yes
2000GU127 O C 2009-03-03.30214 1.000E-05 11:34:43.500 1.500E-01 0.500 F 0.193 0.051 +01° 44' 21.20" 1.000E-01 0.500 F 0.096 0.220 21.2 V 0.70 -0.16 o 691 0.45 Yes Yes
1992NA O C H 2009-03-03.30214 1.000E-05 11:38:26.650 1.500E-01 0.500 F 0.233 0.020 +01° 52' 02.60" 1.000E-01 0.500 F 0.201 -0.777 o 691 1.55 Yes No
2000GO82 O C H 2009-03-03.30461 1.000E-05 11:46:18.210 1.500E-01 0.500 F 0.323 0.647 +00° 50' 37.70" 1.000E-01 0.500 F 0.249 -0.767 o 691 2.01 Yes No
2009EA O C H 2009-03-03.30707 1.000E-05 11:54:26.300 1.500E-01 0.500 F 0.105 -2.307 +01° 49' 35.60" 1.000E-01 0.500 F 0.137 -1.540 o 691 4.23 No No
2009EJ1 O C 2009-03-03.31461 1.000E-05 11:53:04.520 1.500E-01 0.500 F 0.162 -0.025 +00° 04' 44.70" 1.000E-01 0.500 F 0.122 0.084 20.3 V 0.70 -0.54 o 691 0.20 Yes Yes
Verenia O C 2009-03-03.31461 1.000E-05 11:52:26.410 1.500E-01 0.500 F 0.171 0.086 +00° 36' 13.30" 1.000E-01 0.500 F 0.152 -0.204 21.1 V 0.70 0.06 o 691 0.44 Yes Yes
2004NL8 O C 2009-03-03.32629 1.000E-05 12:14:44.390 1.500E-01 0.500 F 0.143 -0.222 +01° 46' 17.10" 1.000E-01 0.500 F 0.185 -0.127 17.4 V 0.70 0.53 o 691 0.52 Yes Yes
2009EZ O C 2009-03-03.33406 1.000E-05 12:15:54.060 1.500E-01 0.500 F 0.226 0.181 -00° 38' 23.20" 1.000E-01 0.500 F 0.089 1.911 19.3 V 0.70 -0.25 o 691 3.60 No Yes
2004NL8 O C 2009-03-03.34416 1.000E-05 12:14:41.530 1.500E-01 0.500 F 0.143 -0.096 +01° 46' 43.30" 1.000E-01 0.500 F 0.185 -0.043 17.3 V 0.70 0.43 o 691 0.21 Yes Yes
2009EZ O C 2009-03-03.35171 1.000E-05 12:15:53.010 1.500E-01 0.500 F 0.226 -0.225 -00° 39' 22.90" 1.000E-01 0.500 F 0.089 0.253 19.6 V 0.70 0.05 o 691 0.73 Yes Yes
2004NL8 O C 2009-03-03.36181 1.000E-05 12:14:38.700 1.500E-01 0.500 F 0.143 -0.028 +01° 47' 09.10" 1.000E-01 0.500 F 0.185 -0.017 17.6 V 0.70 0.73 o 691 0.07 Yes Yes
2009EZ O C 2009-03-03.36935 1.000E-05 12:15:51.990 1.500E-01 0.500 F 0.226 -0.130 -00° 40' 21.30" 1.000E-01 0.500 F 0.089 -0.100 19.5 V 0.70 -0.05 o 691 0.35 Yes Yes
2002EN7 O C 2009-03-03.44963 1.000E-05 12:57:44.380 1.500E-01 0.500 F 0.248 -0.132 -07° 43' 01.70" 1.000E-01 0.500 F 0.000 -0.072 20.9 V 0.70 0.22 o 691 0.31 Yes Yes
2002EN7 O C 2009-03-03.46727 1.000E-05 12:57:42.420 1.500E-01 0.500 F 0.248 -0.565 -07° 43' 53.70" 1.000E-01 0.500 F 0.000 -0.400 20.9 V 0.70 0.22 o 691 1.42 Yes Yes
2002EN7 O C 2009-03-03.48493 1.000E-05 12:57:40.520 1.500E-01 0.500 F 0.248 -0.138 -07° 44' 45.10" 1.000E-01 0.500 F 0.000 -0.063 21.4 V 0.70 0.72 o 691 0.31 Yes Yes
2004BL11 O C t 2009-03-03.49095 1.000E-05 16:05:05.550 1.500E-01 0.500 F -0.005 0.364 -03° 13' 29.10" 1.000E-01 0.500 F 0.201 -0.586 19.9 V 0.70 0.05 o 691 1.43 Yes Yes
2006GQ2 O C 2009-03-03.49341 1.000E-05 16:17:43.750 1.500E-01 0.500 F 0.035 -0.035 -03° 32' 07.90" 1.000E-01 0.500 F 0.189 0.009 18.4 V 0.70 0.09 o 691 0.07 Yes Yes
2004BL11 O C H 2009-03-03.50354 1.000E-05 16:05:10.560 1.500E-01 0.500 F -0.005 0.253 -03° 13' 18.80" 1.000E-01 0.500 F 0.201 -0.710 o 691 1.54 Yes No
2006GQ2 O C 2009-03-03.50600 1.000E-05 16:17:41.670 1.500E-01 0.500 F 0.035 -0.182 -03° 32' 38.90" 1.000E-01 0.500 F 0.189 -0.001 18.5 V 0.70 0.19 o 691 0.37 Yes Yes
2004BL11 O C t 2009-03-03.51613 1.000E-05 16:05:15.560 1.500E-01 0.500 F -0.005 -0.041 -03° 13' 08.50" 1.000E-01 0.500 F 0.201 -0.850 19.8 V 0.70 -0.05 o 691 1.72 Yes Yes
2006GQ2 O C 2009-03-03.51859 1.000E-05 16:17:39.560 1.500E-01 0.500 F 0.035 -0.737 -03° 33' 09.70" 1.000E-01 0.500 F 0.189 0.185 18.6 V 0.70 0.29 o 691 1.54 Yes Yes
2007EM88 O C 2009-03-15.11269 1.000E-05 10:49:02.790 1.500E-01 0.500 F 0.016 -0.493 +16° 32' 41.10" 1.000E-01 0.500 F 0.126 -0.324 20.5 V 0.70 -0.23 o 691 1.19 Yes Yes
2007EM88 O C 2009-03-15.12929 1.000E-05 10:49:01.550 1.500E-01 0.500 F 0.016 -0.631 +16° 32' 45.20" 1.000E-01 0.500 F 0.126 -0.260 20.9 V 0.70 0.17 o 691 1.37 Yes Yes
2007EM88 O C 2009-03-15.14589 1.000E-05 10:49:00.360 1.500E-01 0.500 F 0.016 0.033 +16° 32' 49.50" 1.000E-01 0.500 F 0.126 0.028 20.7 V 0.70 -0.03 o 691 0.09 Yes Yes
2000ST20 O C H 2009-03-15.16900 1.000E-05 10:56:33.590 1.500E-01 0.500 F 0.108 0.157 +02° 38' 32.70" 1.000E-01 0.500 F 0.069 -1.397 o 691 2.84 Yes No
2000ST20 O C H 2009-03-15.18616 1.000E-05 10:56:31.940 1.500E-01 0.500 F 0.108 0.102 +02° 38' 31.00" 1.000E-01 0.500 F 0.069 -0.694 21.2 V 0.70 0.18 o 691 1.42 Yes Yes
2000ST20 O C H 2009-03-15.20034 1.000E-05 10:56:30.460 1.500E-01 0.500 F 0.108 -1.656 +02° 38' 28.80" 1.000E-01 0.500 F 0.069 -0.906 21.3 V 0.70 0.28 o 691 3.76 No Yes
2009EF3 O C 2009-03-15.22591 1.000E-05 11:59:00.100 1.500E-01 0.500 F 0.080 -0.065 -02° 17' 47.10" 1.000E-01 0.500 F 0.158 -0.045 19.9 V 0.70 0.09 o 691 0.16 Yes Yes
2009EF3 O C 2009-03-15.24154 1.000E-05 11:58:57.740 1.500E-01 0.500 F 0.080 0.159 -02° 16' 46.80" 1.000E-01 0.500 F 0.158 -0.338 19.9 V 0.70 0.09 o 691 0.76 Yes Yes
2009EF3 O C 2009-03-15.25718 1.000E-05 11:58:55.330 1.500E-01 0.500 F 0.080 -0.217 -02° 15' 45.80" 1.000E-01 0.500 F 0.158 0.030 20.1 V 0.70 0.29 o 691 0.44 Yes Yes
2009DR36 O C 2009-03-15.39617 1.000E-05 13:13:18.570 1.500E-01 0.500 F 0.197 -0.399 -09° 17' 43.20" 1.000E-01 0.500 F 0.006 -0.413 19.8 V 0.70 0.44 o 691 1.16 Yes Yes
2009DR36 O C 2009-03-15.41674 1.000E-05 13:13:13.210 1.500E-01 0.500 F 0.197 -0.875 -09° 18' 35.10" 1.000E-01 0.500 F 0.006 -0.208 19.2 V 0.70 -0.16 o 691 1.83 Yes Yes
2009DR36 O C 2009-03-15.43508 1.000E-05 13:13:08.500 1.500E-01 0.500 F 0.197 -0.384 -09° 19' 21.20" 1.000E-01 0.500 F 0.006 0.048 19.5 V 0.70 0.14 o 691 0.79 Yes Yes
2009EQ2 O C H 2009-03-15.44830 1.000E-05 13:43:47.980 1.500E-01 0.500 F 0.193 0.284 -07° 11' 50.40" 1.000E-01 0.500 F 0.000 -0.104 20.0 V 0.70 -0.05 o 691 0.62 Yes Yes
2003UN12 O C H 2009-03-15.45592 1.000E-05 14:02:51.450 1.500E-01 0.500 F 0.298 0.235 -06° 28' 59.50" 1.000E-01 0.500 F 0.052 -0.752 o 691 1.58 Yes No
2009EQ2 O C H 2009-03-15.46665 1.000E-05 13:43:50.710 1.500E-01 0.500 F 0.193 -0.485 -07° 11' 39.50" 1.000E-01 0.500 F 0.000 -0.351 19.9 V 0.70 -0.15 o 691 1.24 Yes Yes
2003UN12 O C H 2009-03-15.47428 1.000E-05 14:02:51.020 1.500E-01 0.500 F 0.298 -0.461 -06° 28' 58.60" 1.000E-01 0.500 F 0.052 -0.463 o 691 1.31 Yes No
2009EQ2 O C H 2009-03-15.48476 1.000E-05 13:43:53.470 1.500E-01 0.500 F 0.193 -0.388 -07° 11' 28.10" 1.000E-01 0.500 F 0.000 0.001 19.8 V 0.70 -0.25 o 691 0.80 Yes Yes
2003UN12 O C H 2009-03-15.49239 1.000E-05 14:02:50.680 1.500E-01 0.500 F 0.298 0.086 -06° 28' 57.70" 1.000E-01 0.500 F 0.052 -0.176 o 691 0.39 Yes No
2009LQ1 O C 2009-03-16.22851 1.000E-05 12:38:39.260 1.500E-01 0.500 F 0.186 0.040 +02° 10' 05.20" 1.000E-01 0.500 F 0.170 -0.081 20.1 V 0.70 -0.18 o 691 0.19 Yes Yes
2009LQ1 O C 2009-03-16.24661 1.000E-05 12:38:38.940 1.500E-01 0.500 F 0.186 -0.039 +02° 10' 13.40" 1.000E-01 0.500 F 0.170 -0.131 20.2 V 0.70 -0.08 o 691 0.28 Yes Yes
2006EV52 O C H 2009-03-16.24931 1.000E-05 12:17:44.580 1.500E-01 0.500 F 0.033 0.456 +03° 36' 10.40" 1.000E-01 0.500 F 0.211 -0.639 o 691 1.57 Yes No
2009LQ1 O C 2009-03-16.26473 1.000E-05 12:38:38.620 1.500E-01 0.500 F 0.186 0.145 +02° 10' 21.30" 1.000E-01 0.500 F 0.170 -0.483 20.0 V 0.70 -0.28 o 691 1.04 Yes Yes
2009FE O C 2009-03-16.27919 1.000E-05 13:31:33.140 1.500E-01 0.500 F 0.161 -0.363 -03° 16' 45.00" 1.000E-01 0.500 F 0.073 0.189 19.9 V 0.70 -0.01 o 691 0.83 Yes Yes
2000FM10 O C H 2009-03-16.28180 1.000E-05 13:15:34.370 1.500E-01 0.500 F 0.147 0.315 -05° 42' 10.20" 1.000E-01 0.500 F 0.026 0.386 21.1 V 0.70 0.06 o 691 1.00 Yes Yes
2009FE O C 2009-03-16.29728 1.000E-05 13:31:36.450 1.500E-01 0.500 F 0.161 -0.175 -03° 17' 02.50" 1.000E-01 0.500 F 0.073 -0.114 19.8 V 0.70 -0.11 o 691 0.42 Yes Yes
2000FM10 O C H 2009-03-16.30016 1.000E-05 13:15:32.660 1.500E-01 0.500 F 0.147 -2.357 -05° 42' 04.70" 1.000E-01 0.500 F 0.026 -1.303 21.5 V 0.70 0.46 o 691 5.38 No Yes
2009FE O C 2009-03-16.31565 1.000E-05 13:31:39.800 1.500E-01 0.500 F 0.161 0.019 -03° 17' 20.00" 1.000E-01 0.500 F 0.073 -0.152 19.8 V 0.70 -0.11 o 691 0.31 Yes Yes
2000FM10 O C H 2009-03-16.31828 1.000E-05 13:15:31.280 1.500E-01 0.500 F 0.147 -0.362 -05° 41' 56.50" 1.000E-01 0.500 F 0.026 -0.206 21.0 V 0.70 -0.04 o 691 0.83 Yes Yes
1993EA O C 2009-03-16.45427 1.000E-05 14:53:35.260 1.500E-01 0.500 F 0.175 -0.333 -07° 03' 48.20" 1.000E-01 0.500 F 0.083 -0.160 19.0 V 0.70 -0.07 o 691 0.74 Yes Yes
1993EA O C 2009-03-16.47237 1.000E-05 14:53:34.880 1.500E-01 0.500 F 0.175 -0.217 -07° 03' 40.20" 1.000E-01 0.500 F 0.083 0.057 19.1 V 0.70 0.03 o 691 0.45 Yes Yes
1993EA O C 2009-03-16.48811 1.000E-05 14:53:34.540 1.500E-01 0.500 F 0.175 -0.258 -07° 03' 33.60" 1.000E-01 0.500 F 0.083 -0.126 19.1 V 0.70 0.04 o 691 0.58 Yes Yes
2008EN82 O C H 2009-03-17.43394 1.000E-05 14:53:38.650 1.500E-01 0.500 F 0.225 -1.016 -14° 38' 57.20" 1.000E-01 0.500 F 0.100 -0.223 o 691 2.09 Yes No
2003OR14 O C H 2009-03-17.43913 1.000E-05 14:37:25.510 1.500E-01 0.500 F -0.008 0.185 -16° 04' 55.60" 1.000E-01 0.500 F 0.008 -0.103 o 691 0.43 Yes No
2008EN82 O C H 2009-03-17.45163 1.000E-05 14:53:38.240 1.500E-01 0.500 F 0.225 -0.785 -14° 38' 51.90" 1.000E-01 0.500 F 0.100 1.335 o 691 3.10 Yes No
2008EN82 O C H 2009-03-17.46932 1.000E-05 14:53:37.890 1.500E-01 0.500 F 0.225 0.321 -14° 38' 49.80" 1.000E-01 0.500 F 0.100 -0.316 o 691 0.90 Yes No
Miwablock O C H 2009-03-18.14092 1.000E-05 10:48:27.270 1.500E-01 0.500 F 0.075 -0.109 +17° 34' 26.00" 1.000E-01 0.500 F 0.127 -0.146 19.8 V 0.70 0.64 o 691 0.36 Yes Yes
2007EM88 O C H 2009-03-18.16050 1.000E-05 10:45:34.320 1.500E-01 0.500 F 0.024 -0.468 +16° 42' 37.20" 1.000E-01 0.500 F 0.167 -0.762 o 691 1.80 Yes No
Miwablock O C H 2009-03-18.16050 1.000E-05 10:48:26.110 1.500E-01 0.500 F 0.075 -0.361 +17° 34' 31.00" 1.000E-01 0.500 F 0.127 -0.304 19.7 V 0.70 0.54 o 691 0.94 Yes Yes
2007EM88 O C H 2009-03-18.17722 1.000E-05 10:45:33.180 1.500E-01 0.500 F 0.024 -0.436 +16° 42' 40.20" 1.000E-01 0.500 F 0.167 -0.665 o 691 1.60 Yes No
2006EV52 O C 2009-03-18.18976 1.000E-05 12:15:26.560 1.500E-01 0.500 F 0.082 -0.521 +03° 59' 03.80" 1.000E-01 0.500 F 0.193 -0.310 o 691 1.22 Yes No
2006EV52 O C 2009-03-18.20735 1.000E-05 12:15:25.290 1.500E-01 0.500 F 0.082 -0.282 +03° 59' 16.90" 1.000E-01 0.500 F 0.193 0.258 o 691 0.77 Yes No
2006EV52 O C 2009-03-18.22495 1.000E-05 12:15:24.010 1.500E-01 0.500 F 0.082 -0.142 +03° 59' 28.80" 1.000E-01 0.500 F 0.193 -0.379 o 691 0.81 Yes No
2009FE O C 2009-03-18.30315 1.000E-05 13:38:20.720 1.500E-01 0.500 F 0.207 -0.120 -03° 50' 20.40" 1.000E-01 0.500 F -0.009 0.216 20.2 V 0.70 0.45 o 691 0.50 Yes Yes
2009FE O C 2009-03-18.32076 1.000E-05 13:38:24.260 1.500E-01 0.500 F 0.207 0.087 -03° 50' 39.20" 1.000E-01 0.500 F -0.009 0.027 20.0 V 0.70 0.26 o 691 0.18 Yes Yes
2009FE O C 2009-03-18.33835 1.000E-05 13:38:27.760 1.500E-01 0.500 F 0.207 -0.130 -03° 50' 57.60" 1.000E-01 0.500 F -0.009 0.211 19.7 V 0.70 -0.04 o 691 0.50 Yes Yes
2007BF72 O C H 2009-03-18.41144 1.000E-05 14:38:53.950 1.500E-01 0.500 F 0.169 0.372 -10° 46' 48.00" 1.000E-01 0.500 F 0.019 -0.098 o 691 0.77 Yes No
2004FU64 O C 2009-03-18.41654 1.000E-05 14:29:11.200 1.500E-01 0.500 F 0.094 -0.270 -11° 38' 04.60" 1.000E-01 0.500 F -0.025 0.025 o 691 0.54 Yes No
2007BF72 O C H 2009-03-18.42915 1.000E-05 14:38:53.610 1.500E-01 0.500 F 0.169 1.255 -10° 46' 47.10" 1.000E-01 0.500 F 0.019 -0.284 o 691 2.59 Yes No
2004FU64 O C 2009-03-18.43425 1.000E-05 14:29:10.490 1.500E-01 0.500 F 0.094 -0.158 -11° 38' 19.80" 1.000E-01 0.500 F -0.025 0.027 o 691 0.32 Yes No
2007BF72 O C H 2009-03-18.44683 1.000E-05 14:38:53.100 1.500E-01 0.500 F 0.169 -0.360 -10° 46' 46.30" 1.000E-01 0.500 F 0.019 -0.592 21.4 V 0.70 -0.25 o 691 1.39 Yes Yes
2004FU64 O C 2009-03-18.45191 1.000E-05 14:29:09.780 1.500E-01 0.500 F 0.094 -0.066 -11° 38' 33.90" 1.000E-01 0.500 F -0.025 1.071 o 691 2.15 Yes No
2009CU1 O C 2009-03-19.12311 1.000E-05 10:53:00.340 1.500E-01 0.500 F 0.100 -0.055 +13° 56' 14.20" 1.000E-01 0.500 F 0.072 -0.153 20.9 V 0.70 0.21 o 691 0.35 Yes Yes
2009CU1 O C 2009-03-19.13620 1.000E-05 10:53:02.120 1.500E-01 0.500 F 0.100 -0.142 +13° 56' 19.00" 1.000E-01 0.500 F 0.072 0.137 20.9 V 0.70 0.20 o 691 0.43 Yes Yes
2009CU1 O C 2009-03-19.14929 1.000E-05 10:53:03.910 1.500E-01 0.500 F 0.100 0.081 +13° 56' 23.50" 1.000E-01 0.500 F 0.072 0.166 20.8 V 0.70 0.10 o 691 0.40 Yes Yes
2009DA45 O C H 2009-03-19.16661 1.000E-05 11:04:32.570 1.500E-01 0.500 F 0.126 -0.606 +09° 53' 58.70" 1.000E-01 0.500 F 0.148 -0.423 21.3 V 0.70 0.19 o 691 1.51 Yes Yes
2009DA45 O C H 2009-03-19.18031 1.000E-05 11:04:33.240 1.500E-01 0.500 F 0.126 -0.291 +09° 53' 56.40" 1.000E-01 0.500 F 0.148 -0.099 21.0 V 0.70 -0.11 o 691 0.63 Yes Yes
2009DA45 O C H 2009-03-19.19402 1.000E-05 11:04:33.860 1.500E-01 0.500 F 0.126 -0.615 +09° 53' 53.30" 1.000E-01 0.500 F 0.148 -0.546 21.3 V 0.70 0.19 o 691 1.68 Yes Yes
1998YM4 O C H 2009-03-19.21621 1.000E-05 11:50:21.780 1.500E-01 0.500 F 0.106 -0.090 -01° 19' 21.40" 1.000E-01 0.500 F 0.076 -0.753 o 691 1.55 Yes No
1996BZ3 O C 2009-03-19.22113 1.000E-05 12:08:57.200 1.500E-01 0.500 F 0.202 -0.425 -00° 41' 50.50" 1.000E-01 0.500 F 0.195 0.005 19.4 V 0.70 0.24 o 691 0.87 Yes Yes
1998YM4 O C H 2009-03-19.23146 1.000E-05 11:50:19.460 1.500E-01 0.500 F 0.106 -0.477 -01° 19' 08.50" 1.000E-01 0.500 F 0.076 0.182 20.9 V 0.70 0.20 o 691 1.04 Yes Yes
1996BZ3 O C 2009-03-19.23638 1.000E-05 12:08:56.230 1.500E-01 0.500 F 0.202 -0.082 -00° 41' 41.30" 1.000E-01 0.500 F 0.195 -0.107 19.3 V 0.70 0.14 o 691 0.27 Yes Yes
1998YM4 O C H 2009-03-19.24670 1.000E-05 11:50:17.220 1.500E-01 0.500 F 0.106 0.363 -01° 18' 56.50" 1.000E-01 0.500 F 0.076 0.219 20.9 V 0.70 0.20 o 691 0.86 Yes Yes
1996BZ3 O C 2009-03-19.25161 1.000E-05 12:08:55.220 1.500E-01 0.500 F 0.202 -0.318 -00° 41' 31.90" 1.000E-01 0.500 F 0.195 -0.005 19.4 V 0.70 0.24 o 691 0.65 Yes Yes
2006DZ169 O C 2009-03-19.27348 1.000E-05 13:27:06.810 1.500E-01 0.500 F 0.216 -0.162 -07° 49' 34.50" 1.000E-01 0.500 F 0.102 -0.071 19.1 V 0.70 0.16 o 691 0.35 Yes Yes
2006DZ169 O C 2009-03-19.29108 1.000E-05 13:27:05.970 1.500E-01 0.500 F 0.216 0.003 -07° 49' 35.30" 1.000E-01 0.500 F 0.102 0.040 19.1 V 0.70 0.16 o 691 0.08 Yes Yes
2006DZ169 O C 2009-03-19.30870 1.000E-05 13:27:05.110 1.500E-01 0.500 F 0.216 -0.049 -07° 49' 36.10" 1.000E-01 0.500 F 0.102 0.136 19.0 V 0.70 0.06 o 691 0.29 Yes Yes
Albert O C 2009-03-19.32008 1.000E-05 13:49:30.730 1.500E-01 0.500 F 0.208 -0.278 -06° 44' 40.90" 1.000E-01 0.500 F -0.003 -0.018 20.3 V 0.70 -0.11 o 691 0.56 Yes Yes
2009EQ2 O C 2009-03-19.32008 1.000E-05 13:54:20.120 1.500E-01 0.500 F 0.191 -0.206 -06° 28' 29.90" 1.000E-01 0.500 F 0.024 0.256 19.9 V 0.70 0.02 o 691 0.68 Yes Yes
2003UN12 O C 2009-03-19.32253 1.000E-05 14:01:24.330 1.500E-01 0.500 F 0.190 0.138 -06° 26' 04.80" 1.000E-01 0.500 F 0.011 0.056 20.6 V 0.70 -0.31 o 691 0.30 Yes Yes
Albert O C 2009-03-19.33768 1.000E-05 13:49:30.070 1.500E-01 0.500 F 0.208 -0.236 -06° 44' 33.80" 1.000E-01 0.500 F -0.003 -0.031 20.2 V 0.70 -0.21 o 691 0.48 Yes Yes
2009EQ2 O C 2009-03-19.33768 1.000E-05 13:54:22.870 1.500E-01 0.500 F 0.191 -0.184 -06° 28' 16.90" 1.000E-01 0.500 F 0.024 0.318 20.1 V 0.70 0.22 o 691 0.76 Yes Yes
2003UN12 O C 2009-03-19.34014 1.000E-05 14:01:23.820 1.500E-01 0.500 F 0.190 0.349 -06° 26' 03.40" 1.000E-01 0.500 F 0.011 0.470 20.5 V 0.70 -0.41 o 691 1.17 Yes Yes
Albert O C 2009-03-19.35528 1.000E-05 13:49:29.430 1.500E-01 0.500 F 0.208 0.123 -06° 44' 26.60" 1.000E-01 0.500 F -0.003 0.049 20.4 V 0.70 0.00 o 691 0.26 Yes Yes
2009EQ2 O C 2009-03-19.35528 1.000E-05 13:54:25.610 1.500E-01 0.500 F 0.191 -0.207 -06° 28' 04.30" 1.000E-01 0.500 F 0.024 -0.062 19.9 V 0.70 0.02 o 691 0.44 Yes Yes
2003UN12 O C 2009-03-19.35774 1.000E-05 14:01:23.230 1.500E-01 0.500 F 0.190 -0.594 -06° 26' 02.60" 1.000E-01 0.500 F 0.011 0.274 20.5 V 0.70 -0.41 o 691 1.32 Yes Yes
2002EB3 O C 2009-03-19.43583 1.000E-05 14:25:50.630 1.500E-01 0.500 F 0.306 -0.081 -19° 26' 21.40" 1.000E-01 0.500 F 0.009 0.162 17.4 V 0.70 0.11 o 691 0.36 Yes Yes
2002EB3 O C 2009-03-19.45695 1.000E-05 14:25:53.080 1.500E-01 0.500 F 0.306 -0.110 -19° 27' 17.30" 1.000E-01 0.500 F 0.009 -0.042 18.7 V 0.70 1.41 o 691 0.24 Yes Yes
2002EB3 O C 2009-03-19.47458 1.000E-05 14:25:55.070 1.500E-01 0.500 F 0.306 -1.014 -19° 28' 03.20" 1.000E-01 0.500 F 0.009 0.519 17.2 V 0.70 -0.08 o 691 2.29 Yes Yes
2009FD O C 2009-03-21.25709 1.000E-05 13:14:22.910 1.500E-01 0.500 F 0.296 -0.284 +00° 27' 11.80" 1.000E-01 0.500 F 0.087 -0.024 o 691 0.57 Yes No
2002CQ11 O C 2009-03-21.25709 1.000E-05 13:15:41.330 1.500E-01 0.500 F 0.289 -0.212 +00° 58' 38.00" 1.000E-01 0.500 F 0.095 -0.098 o 691 0.47 Yes No
2004SV26 O C H 2009-03-21.26471 1.000E-05 13:08:25.420 1.500E-01 0.500 F 0.219 -0.118 -02° 02' 02.30" 1.000E-01 0.500 F 0.128 -0.373 o 691 0.79 Yes No
2002CQ11 O C 2009-03-21.27471 1.000E-05 13:15:38.380 1.500E-01 0.500 F 0.289 -0.003 +00° 59' 00.20" 1.000E-01 0.500 F 0.095 -0.071 o 691 0.14 Yes No
2009FD O C 2009-03-21.27471 1.000E-05 13:14:24.920 1.500E-01 0.500 F 0.296 -0.252 +00° 27' 20.00" 1.000E-01 0.500 F 0.087 0.121 o 691 0.56 Yes No
2004SV26 O C H 2009-03-21.28234 1.000E-05 13:08:24.120 1.500E-01 0.500 F 0.219 -0.790 -02° 01' 57.50" 1.000E-01 0.500 F 0.128 -0.368 o 691 1.77 Yes No
2009FD O C 2009-03-21.29235 1.000E-05 13:14:26.890 1.500E-01 0.500 F 0.296 -0.167 +00° 27' 28.00" 1.000E-01 0.500 F 0.087 0.022 o 691 0.34 Yes No
2002CQ11 O C 2009-03-21.29235 1.000E-05 13:15:35.380 1.500E-01 0.500 F 0.289 -0.340 +00° 59' 22.50" 1.000E-01 0.500 F 0.095 0.026 o 691 0.68 Yes No
2004SV26 O C H 2009-03-21.29744 1.000E-05 13:08:23.120 1.500E-01 0.500 F 0.219 0.362 -02° 01' 52.80" 1.000E-01 0.500 F 0.128 0.223 o 691 0.86 Yes No
2005SG19 O C 2009-03-21.31691 1.000E-05 14:18:02.080 1.500E-01 0.500 F 0.213 -0.085 -12° 55' 57.90" 1.000E-01 0.500 F 0.079 -0.020 o 691 0.18 Yes No
2005SG19 O C 2009-03-21.33460 1.000E-05 14:18:01.940 1.500E-01 0.500 F 0.213 -0.072 -12° 56' 48.30" 1.000E-01 0.500 F 0.079 -0.038 o 691 0.16 Yes No
2005SG19 O C 2009-03-21.35226 1.000E-05 14:18:01.760 1.500E-01 0.500 F 0.213 -0.548 -12° 57' 38.50" 1.000E-01 0.500 F 0.079 0.056 o 691 1.11 Yes No
2008EN82 O C H 2009-03-21.37966 1.000E-05 14:51:59.240 1.500E-01 0.500 F 0.208 -0.129 -14° 24' 20.20" 1.000E-01 0.500 F 0.100 -0.126 o 691 0.37 Yes No
2003OR14 O C H 2009-03-21.38484 1.000E-05 14:35:19.310 1.500E-01 0.500 F 0.149 -0.340 -15° 45' 57.90" 1.000E-01 0.500 F -0.035 0.281 o 691 0.88 Yes No
2008EN82 O C H 2009-03-21.39736 1.000E-05 14:51:58.830 1.500E-01 0.500 F 0.208 1.221 -14° 24' 16.40" 1.000E-01 0.500 F 0.100 -0.429 o 691 2.59 Yes No
2003OR14 O C H 2009-03-21.40253 1.000E-05 14:35:18.700 1.500E-01 0.500 F 0.149 -0.001 -15° 45' 53.90" 1.000E-01 0.500 F -0.035 -1.058 o 691 2.12 Yes No
2008EN82 O C H 2009-03-21.41500 1.000E-05 14:51:58.260 1.500E-01 0.500 F 0.208 0.233 -14° 24' 12.20" 1.000E-01 0.500 F 0.100 -0.328 o 691 0.80 Yes No
2003OR14 O C H 2009-03-21.42017 1.000E-05 14:35:18.150 1.500E-01 0.500 F 0.149 1.188 -15° 45' 48.60" 1.000E-01 0.500 F -0.035 -1.095 o 691 3.22 No No
1996FR3 O C 2009-03-21.44277 1.000E-05 15:10:01.060 1.500E-01 0.500 F 0.078 -0.081 -18° 47' 46.80" 1.000E-01 0.500 F -0.164 -0.028 o 691 0.17 Yes No
1999ML O C H 2009-03-21.44795 1.000E-05 14:50:16.920 1.500E-01 0.500 F 0.013 0.328 -16° 40' 48.90" 1.000E-01 0.500 F -0.009 -1.217 o 691 2.52 Yes No
1996FR3 O C 2009-03-21.46044 1.000E-05 15:09:59.850 1.500E-01 0.500 F 0.078 -0.716 -18° 47' 44.60" 1.000E-01 0.500 F -0.164 -0.046 o 691 1.44 Yes No
1999ML O C H 2009-03-21.46561 1.000E-05 14:50:16.800 1.500E-01 0.500 F 0.013 0.717 -16° 40' 47.00" 1.000E-01 0.500 F -0.009 -0.866 o 691 2.26 Yes No

[1-200] [201-400] [401-600] [601-800] [801-1000] [1001-1200] [1201-1400] [1401-1600] [1601-1800] [1801-2000] [2001-2200] [2201-2400] [2401-2600] [2601-2800] [2801-3000] [3001-3200] [3201-3400] [3401-3600] [3601-3800] [3801-4000] [4001-4200] [4201-4400] [4401-4600] [4601-4800] [4801-5000] [5001-5200] [5201-5400] [5401-5600] [5601-5800] [5801-6000] [6001-6200] [6201-6400] [6401-6600] [6601-6800] [6801-7000] [7001-7200] [7201-7400] [7401-7600] [7601-7800] [7801-8000] [8001-8200] [8201-8400] [8401-8600] [8601-8800] [8801-9000] [9001-9200] [9201-9400] [9401-9600] [9601-9800] [9801-10000] [10001-10200] [10201-10400] [10401-10600] [10601-10800] [10801-11000] [11001-11200] [11201-11400] [11401-11600] [11601-11800] [11801-12000] [12001-12200] [12201-12400] [12401-12600] [12601-12800] [12801-13000] [13001-13200] [13201-13400] [13401-13600] [13601-13800] [13801-14000] [14001-14200] [14201-14400] [14401-14600] [14601-14800] [14801-15000] [15001-15200] [15201-15400] [15401-15600] [15601-15800] [15801-16000] [16001-16200] [16201-16400] [16401-16600] [16601-16800] [16801-17000] [17001-17200] [17201-17400] [17401-17600] [17601-17800] [17801-18000] [18001-18200] [18201-18400] [18401-18600] [18601-18800] [18801-19000] [19001-19200] [19201-19400] [19401-19600] [19601-19800] [19801-20000] [20001-20200] [20201-20400] [20401-20600] [20601-20800] [20801-21000] [21001-21200] [21201-21400] [21401-21600] [21601-21800] [21801-22000] [22001-22200] [22201-22400] [22401-22600] [22601-22800] [22801-23000] [23001-23200] [23201-23400] [23401-23600] [23601-23800] [23801-24000] [24001-24200] [24201-24400] [24401-24600] [24601-24800] [24801-25000] [25001-25200] [25201-25400] [25401-25600] [25601-25800] [25801-26000] [26001-26200] [26201-26400] [26401-26600] [26601-26800] [26801-27000] [27001-27200] [27201-27400] [27401-27600] [27601-27800] [27801-28000] [28001-28200] [28201-28400] [28401-28600] [28601-28800] [28801-29000] [29001-29200] [29201-29400] [29401-29600] [29601-29800] [29801-30000] [30001-30200] [30201-30400] [30401-30600] [30601-30800] [30801-31000] [31001-31200] [31201-31400] [31401-31600] [31601-31800] [31801-32000] [32001-32200] [32201-32400] [32401-32600] [32601-32800] [32801-33000] [33001-33200] [33201-33400] [33401-33600] [33601-33800] [33801-34000] [34001-34200] [34201-34400] [34401-34600] [34601-34800] [34801-35000] [35001-35200] [35201-35400] [35401-35600] [35601-35800] [35801-36000] [36001-36200] [36201-36400] [36401-36600] [36601-36800] [36801-37000] [37001-37200] [37201-37400] [37401-37600] [37601-37800] [37801-38000] [38001-38200] [38201-38400] [38401-38600] [38601-38800] [38801-39000] [39001-39200] [39201-39400] [39401-39600] [39601-39800] [39801-40000] [40001-40200] [40201-40400] [40401-40600] [40601-40800] [40801-41000] [41001-41200] [41201-41400] [41401-41600] [41601-41800] [41801-42000] [42001-42200] [42201-42400] [42401-42600] [42601-42800] [42801-43000] [43001-43200] [43201-43400] [43401-43600] [43601-43800] [43801-44000] [44001-44200] [44201-44400] [44401-44600] [44601-44800] [44801-45000] [45001-45200] [45201-45400] [45401-45600] [45601-45800] [45801-46000] [46001-46200] [46201-46400] [46401-46600] [46601-46800] [46801-47000] [47001-47200] [47201-47400] [47401-47600] [47601-47800] [47801-48000] [48001-48200] [48201-48400] [48401-48600] [48601-48800] [48801-49000] [49001-49200] [49201-49400] [49401-49600] [49601-49800] [49801-50000] [50001-50200] [50201-50388]